Latest Coastal Weather Observations for Barrow Island

IDW60701

Issued at 2:05 pm WST Sunday 26 October 2014 (issued every 10 minutes, with the page automatically refreshed every 10 minutes)

About coastal observations | Map of coastal stations | Coastal observations for WA | Marine services | Other Formats
Station Details ID: 005094 Name: BARROW ISLAND AIRPORT Lat: -20.88 Lon: 115.41 Height: 6.4 m
Data from the previous 72 hours. | See also: Recent months at Barrow Island
Date/Time
WST
Temp

°C
Wind Pressure Rain
since 9am
mm
Weather Cloud Vis
km
Sea
Height
m
Swell
Dir
 
Speed
knots
Gust
knots
hPa Trend Height
m
Period
s
Dir
26/02:00pm 29.6 SW 15 19 1013.2 - 0.0 - - - - - - -
26/01:30pm 29.1 SW 15 17 1013.5 - 0.0 - - - - - - -
26/01:00pm 27.7 SW 16 18 1013.9 - 0.0 - - - - - - -
26/12:30pm 27.2 SW 16 18 1014.3 - 0.0 - - - - - - -
26/12:00pm 27.3 SW 16 19 1014.7 - 0.0 - - - - - - -
26/11:30am 26.6 SSW 16 19 1015.0 - 0.0 - - - - - - -
26/11:00am 26.3 SW 16 18 1015.3 - 0.0 - - - - - - -
26/10:30am 25.6 SSW 16 19 1015.5 - 0.0 - - - - - - -
26/10:00am 25.3 SSW 17 20 1015.7 - 0.0 - - - - - - -
26/09:30am 24.8 SSW 18 21 1015.6 - 0.0 - - - - - - -
26/09:00am 24.4 SSW 19 22 1015.6 - 0.0 - - - - - - -
26/08:30am 24.3 SSW 19 22 1015.4 - 0.0 - - - - - - -
26/08:00am 23.8 SSW 21 23 1015.2 - 0.0 - - - - - - -
26/07:30am 23.6 SSW 20 23 1014.9 - 0.0 - - - - - - -
26/07:00am 23.6 SSW 20 23 1014.8 - 0.0 - - - - - - -
26/06:30am 23.4 SSW 20 24 1014.6 - 0.0 - - - - - - -
26/06:00am 23.4 S 19 22 1014.3 - 0.0 - - - - - - -
26/05:30am 23.3 S 18 22 1014.0 - 0.0 - - - - - - -
26/05:00am 23.5 S 21 23 1013.7 - 0.0 - - - - - - -
26/04:30am 23.5 SSW 20 23 1013.4 - 0.0 - - - - - - -
26/04:00am 23.7 SSW 21 25 1013.0 - 0.0 - - - - - - -
26/03:30am 24.1 SSW 21 25 1012.9 - 0.0 - - - - - - -
26/03:00am 24.2 SSW 22 25 1012.8 - 0.0 - - - - - - -
26/02:30am 24.4 SSW 20 25 1012.9 - 0.0 - - - - - - -
26/02:00am 24.2 SSW 20 24 1013.0 - 0.0 - - - - - - -
26/01:30am 24.2 SW 21 25 1013.2 - 0.0 - - - - - - -
26/01:00am 24.1 SW 19 22 1013.6 - 0.0 - - - - - - -
26/12:30am 24.0 SW 18 22 1013.8 - 0.0 - - - - - - -
26/12:00am 23.9 SW 17 21 1014.0 - 0.0 - - - - - - -
 
Date/Time
WST
Temp

°C
Wind Pressure Rain
since 9am
mm
Weather Cloud Vis
km
Sea
Height
m
Swell
Dir
 
Speed
knots
Gust
knots
hPa Trend Height
m
Period
s
Dir
25/11:30pm 24.0 SW 19 21 1014.2 - 0.0 - - - - - - -
25/11:00pm 24.2 SW 19 23 1014.4 - 0.0 - - - - - - -
25/10:30pm 24.3 SW 19 22 1014.6 - 0.0 - - - - - - -
25/10:00pm 24.4 SW 18 21 1014.7 - 0.0 - - - - - - -
25/09:30pm 24.4 SW 17 20 1014.7 - 0.0 - - - - - - -
25/09:00pm 24.3 SW 16 20 1014.8 - 0.0 - - - - - - -
25/08:30pm 24.3 SW 17 20 1014.8 - 0.0 - - - - - - -
25/08:00pm 24.5 WSW 17 23 1014.8 - 0.0 - - - - - - -
25/07:30pm 24.2 WSW 15 18 1014.6 - 0.0 - - - - - - -
25/07:00pm 24.3 WSW 14 17 1014.5 - 0.0 - - - - - - -
25/06:30pm 24.5 WSW 17 20 1014.3 - 0.0 - - - - - - -
25/06:00pm 25.2 WSW 18 23 1014.2 - 0.0 - - - - - - -
25/05:30pm 26.5 WSW 18 22 1014.0 - 0.0 - - - - - - -
25/05:00pm 27.7 WSW 19 23 1013.8 - 0.0 - - - - - - -
25/04:30pm 27.7 SW 19 23 1013.9 - 0.0 - - - - - - -
25/04:00pm 27.7 WSW 19 24 1013.9 - 0.0 - - - - - - -
25/03:30pm 27.5 WSW 19 25 1014.0 - 0.0 - - - - - - -
25/03:00pm 27.1 WSW 20 23 1014.2 - 0.0 - - - - - - -
25/02:30pm 27.7 SW 18 22 1014.2 - 0.0 - - - - - - -
25/02:00pm 27.5 SW 19 23 1014.5 - 0.0 - - - - - - -
25/01:30pm 26.7 SW 19 22 1014.7 - 0.0 - - - - - - -
25/01:00pm 26.8 SW 19 23 1015.1 - 0.0 - - - - - - -
25/12:30pm 26.4 SW 19 22 1015.2 - 0.0 - - - - - - -
25/12:00pm 26.1 SW 17 21 1015.6 - 0.0 - - - - - - -
25/11:30am 25.7 SW 18 21 1016.0 - 0.0 - - - - - - -
25/11:00am 25.3 SSW 17 20 1016.3 - 0.0 - - - - - - -
25/10:30am 24.8 SSW 18 21 1016.6 - 0.0 - - - - - - -
25/10:00am 24.4 SSW 19 22 1016.6 - 0.0 - - - - - - -
25/09:30am 24.2 SSW 19 22 1016.5 - 0.0 - - - - - - -
25/09:00am 23.9 SSW 19 21 1016.4 - 0.0 - - - - - - -
25/08:30am 23.8 SSW 18 20 1016.1 - 0.0 - - - - - - -
25/08:00am 23.4 SSW 18 22 1015.8 - 0.0 - - - - - - -
25/07:30am 23.2 SSW 18 21 1015.7 - 0.0 - - - - - - -
25/07:00am 22.8 SSW 17 20 1015.5 - 0.0 - - - - - - -
25/06:30am 22.7 SSW 18 21 1015.3 - 0.0 - - - - - - -
25/06:00am 22.7 SSW 17 19 1014.9 - 0.0 - - - - - - -
25/05:30am 22.8 SSW 16 19 1014.4 - 0.0 - - - - - - -
25/05:00am 23.0 SSW 17 20 1014.3 - 0.0 - - - - - - -
25/04:30am 23.1 SSW 17 19 1014.1 - 0.0 - - - - - - -
25/04:00am 23.3 S 15 18 1013.6 - 0.0 - - - - - - -
25/03:30am 23.6 SSW 17 20 1013.4 - 0.0 - - - - - - -
25/03:00am 23.7 SSW 18 21 1013.1 - 0.0 - - - - - - -
25/02:30am 23.9 SSW 20 23 1012.8 - 0.0 - - - - - - -
25/02:00am 23.8 SSW 20 23 1012.9 - 0.0 - - - - - - -
25/01:30am 23.8 SSW 19 23 1013.0 - 0.0 - - - - - - -
25/01:00am 23.9 SSW 17 21 1013.2 - 0.0 - - - - - - -
25/12:30am 24.1 SW 18 21 1013.0 - 0.0 - - - - - - -
25/12:00am 24.3 SSW 15 18 1013.1 - 0.0 - - - - - - -
 
Date/Time
WST
Temp

°C
Wind Pressure Rain
since 9am
mm
Weather Cloud Vis
km
Sea
Height
m
Swell
Dir
 
Speed
knots
Gust
knots
hPa Trend Height
m
Period
s
Dir
24/11:30pm 24.6 SW 16 19 1013.2 - 0.0 - - - - - - -
24/11:00pm 25.0 SSW 16 19 1013.4 - 0.0 - - - - - - -
24/10:30pm 25.1 SSW 18 21 1013.4 - 0.0 - - - - - - -
24/10:00pm 24.7 SSW 19 23 1013.5 - 0.0 - - - - - - -
24/09:30pm 24.5 SW 18 22 1013.4 - 0.0 - - - - - - -
24/09:00pm 24.3 SW 17 21 1013.2 - 0.0 - - - - - - -
24/08:30pm 24.2 SW 17 23 1012.9 - 0.0 - - - - - - -
24/08:00pm 24.2 WSW 18 22 1012.6 - 0.0 - - - - - - -
24/07:30pm 24.2 WSW 18 23 1012.2 - 0.0 - - - - - - -
24/07:00pm 24.4 WSW 17 20 1011.8 - 0.0 - - - - - - -
24/06:30pm 24.6 WSW 16 19 1011.5 - 0.0 - - - - - - -
24/06:00pm 25.2 WSW 16 22 1011.3 - 0.0 - - - - - - -
24/05:30pm 26.2 SW 18 22 1011.2 - 0.0 - - - - - - -
24/05:00pm 27.0 SW 19 23 1011.0 - 0.0 - - - - - - -
24/04:30pm 27.4 SW 19 23 1010.9 - 0.0 - - - - - - -
24/04:00pm 28.0 SW 16 20 1010.9 - 0.0 - - - - - - -
24/03:30pm 28.8 SW 15 17 1010.9 - 0.0 - - - - - - -
24/03:00pm 29.1 SW 14 18 1011.1 - 0.0 - - - - - - -
24/02:30pm 29.9 SW 13 15 1011.5 - 0.0 - - - - - - -
24/02:00pm 28.5 SW 14 18 1011.8 - 0.0 - - - - - - -
24/01:30pm 27.3 SSW 15 17 1012.0 - 0.0 - - - - - - -
24/01:00pm 26.9 SSW 13 16 1012.5 - 0.0 - - - - - - -
24/12:30pm 26.4 SSW 12 14 1012.8 - 0.0 - - - - - - -
24/12:00pm 26.1 SSW 13 15 1013.1 - 0.0 - - - - - - -
24/11:30am 25.7 SSW 13 17 1013.4 - 0.0 - - - - - - -
24/11:00am 25.3 SSW 15 17 1013.4 - 0.0 - - - - - - -
24/10:30am 24.6 SSW 16 18 1013.8 - 0.0 - - - - - - -
24/10:00am 24.2 SSW 15 17 1013.9 - 0.0 - - - - - - -
24/09:30am 24.1 SSW 14 16 1014.2 - 0.0 - - - - - - -
24/09:00am 23.9 S 13 16 1014.1 - 0.0 - - - - - - -
24/08:30am 23.6 S 13 15 1013.9 - 0.0 - - - - - - -
24/08:00am 23.0 SSW 20 22 1013.2 - 0.0 - - - - - - -
24/07:30am 22.4 SSW 19 21 1013.2 - 0.0 - - - - - - -
24/07:00am 22.1 SSW 18 21 1013.1 - 0.0 - - - - - - -
24/06:30am 21.9 SSW 19 22 1012.9 - 0.0 - - - - - - -
24/06:00am 21.6 SSW 20 23 1012.6 - 0.0 - - - - - - -
24/05:30am 21.7 SSW 20 23 1012.6 - 0.0 - - - - - - -
24/05:00am 22.1 SSW 20 24 1012.5 - 0.0 - - - - - - -
24/04:30am 22.2 SSW 20 23 1012.2 - 0.0 - - - - - - -
24/04:00am 22.6 SSW 22 25 1011.9 - 0.0 - - - - - - -
24/03:30am 22.5 SSW 23 27 1011.6 - 0.0 - - - - - - -
24/03:00am 22.9 SSW 25 28 1011.5 - 0.0 - - - - - - -
24/02:30am 22.8 SSW 23 28 1011.8 - 0.0 - - - - - - -
24/02:00am 23.1 SSW 23 29 1012.0 - 0.0 - - - - - - -
24/01:30am 23.2 SSW 22 27 1012.5 - 0.0 - - - - - - -
24/01:00am 22.9 SW 21 25 1012.7 - 0.0 - - - - - - -
24/12:30am 22.9 SW 20 24 1012.9 - 0.0 - - - - - - -
24/12:00am 23.2 SW 20 25 1013.1 - 0.0 - - - - - - -
 
Date/Time
WST
Temp

°C
Wind Pressure Rain
since 9am
mm
Weather Cloud Vis
km
Sea
Height
m
Swell
Dir
 
Speed
knots
Gust
knots
hPa Trend Height
m
Period
s
Dir
23/11:30pm 23.4 SW 20 23 1013.4 - 0.0 - - - - - - -
23/11:00pm 23.7 SW 20 25 1013.6 - 0.0 - - - - - - -
23/10:30pm 23.8 SW 20 25 1013.7 - 0.0 - - - - - - -
23/10:00pm 23.8 SW 18 22 1013.8 - 0.0 - - - - - - -
23/09:30pm 23.9 SW 17 21 1013.8 - 0.0 - - - - - - -
23/09:00pm 23.8 WSW 17 23 1013.6 - 0.0 - - - - - - -
23/08:30pm 23.6 WSW 16 19 1013.4 - 0.0 - - - - - - -
23/08:00pm 23.6 WSW 16 23 1013.2 - 0.0 - - - - - - -
23/07:30pm 23.6 WSW 16 20 1013.0 - 0.0 - - - - - - -
23/07:00pm 23.9 WSW 18 23 1012.8 - 0.0 - - - - - - -
23/06:30pm 24.1 WSW 18 23 1012.4 - 0.0 - - - - - - -
23/06:00pm 24.8 WSW 17 20 1012.1 - 0.0 - - - - - - -
23/05:30pm 25.4 WSW 19 23 1011.8 - 0.0 - - - - - - -
23/05:00pm 26.1 WSW 20 23 1011.6 - 0.0 - - - - - - -
23/04:30pm 26.9 WSW 20 24 1011.6 - 0.0 - - - - - - -
23/04:00pm 27.5 WSW 21 26 1011.8 - 0.0 - - - - - - -
23/03:30pm 27.1 WSW 21 25 1011.9 - 0.0 - - - - - - -
23/03:00pm 26.8 WSW 19 24 1012.2 - 0.0 - - - - - - -
23/02:30pm 26.9 WSW 19 23 1012.5 - 0.0 - - - - - - -

Other Formats:

Comma delimited format used in spreadsheet applications
http://www.bom.gov.au/fwo/IDW60701/IDW60701.95304.axf

JavaScript Object Notation format (JSON) in row-major order
http://www.bom.gov.au/fwo/IDW60701/IDW60701.95304.json